createdAt,value
2022-12-12T00:00:42.349Z,21.48
2022-12-12T00:03:09.473Z,22.13
2022-12-12T00:05:36.697Z,22.08
2022-12-12T00:08:03.817Z,24.50
2022-12-12T00:10:30.955Z,20.23
2022-12-12T00:12:58.185Z,21.25
2022-12-12T00:15:25.462Z,20.73
2022-12-12T00:17:52.450Z,20.40
2022-12-12T00:20:19.551Z,23.93
2022-12-12T00:22:46.667Z,23.73
2022-12-12T00:25:14.011Z,22.05
2022-12-12T00:27:41.354Z,24.30
2022-12-12T00:30:08.688Z,22.85
2022-12-12T00:32:35.757Z,20.90
2022-12-12T00:35:02.897Z,21.60
2022-12-12T00:37:29.988Z,24.45
2022-12-12T00:39:57.118Z,24.77
2022-12-12T00:42:27.125Z,24.23
2022-12-12T00:44:54.232Z,24.15
2022-12-12T00:47:21.313Z,22.92
2022-12-12T00:49:48.356Z,24.95
2022-12-12T00:52:15.430Z,22.42
2022-12-12T00:54:42.486Z,22.27
2022-12-12T00:57:09.565Z,24.45
2022-12-12T00:59:36.604Z,23.98
2022-12-12T01:02:03.966Z,23.05
2022-12-12T01:04:31.056Z,24.25
2022-12-12T01:06:58.195Z,20.95
2022-12-12T01:09:25.235Z,23.25
2022-12-12T01:11:52.304Z,22.55
2022-12-12T01:14:19.369Z,23.88
2022-12-12T01:16:46.452Z,22.27
2022-12-12T01:19:13.823Z,24.25
2022-12-12T01:21:40.918Z,26.23
2022-12-12T01:24:09.000Z,22.17
2022-12-12T01:26:37.100Z,21.70
2022-12-12T01:29:04.200Z,22.25
2022-12-12T01:31:31.389Z,21.85
2022-12-12T01:33:58.451Z,24.20
2022-12-12T01:36:25.580Z,21.98
2022-12-12T01:38:53.962Z,21.20
2022-12-12T01:41:22.028Z,21.98
2022-12-12T01:43:49.438Z,21.60
2022-12-12T01:46:31.438Z,21.15
2022-12-12T01:49:04.728Z,21.25
2022-12-12T01:51:32.028Z,17.98
2022-12-12T01:54:01.814Z,22.30
2022-12-12T01:56:28.919Z,19.75
2022-12-12T01:58:56.305Z,20.08
2022-12-12T02:01:23.906Z,18.33
2022-12-12T02:03:51.094Z,19.13
2022-12-12T02:06:21.027Z,20.08
2022-12-12T02:08:48.512Z,17.77
2022-12-12T02:11:15.615Z,18.50
2022-12-12T02:13:42.645Z,17.95
2022-12-12T02:16:09.847Z,17.48
2022-12-12T02:18:39.731Z,18.52
2022-12-12T02:21:06.755Z,18.73
2022-12-12T02:23:46.350Z,16.52
2022-12-12T02:26:28.964Z,17.42
2022-12-12T02:29:15.939Z,17.70
2022-12-12T02:31:44.010Z,18.27
2022-12-12T02:34:19.759Z,17.80
2022-12-12T02:36:47.803Z,19.30
2022-12-12T02:39:20.077Z,18.42
2022-12-12T02:41:51.220Z,18.63
2022-12-12T02:44:38.218Z,16.85
2022-12-12T02:47:10.273Z,18.30
2022-12-12T02:49:37.323Z,19.15
2022-12-12T02:52:05.565Z,18.95
2022-12-12T02:54:32.647Z,18.80
2022-12-12T02:57:00.557Z,17.20
2022-12-12T02:59:30.382Z,17.63
2022-12-12T03:02:04.806Z,19.77
2022-12-12T03:05:00.225Z,18.48
2022-12-12T03:07:52.970Z,18.10
2022-12-12T03:10:40.082Z,17.97
2022-12-12T03:13:27.042Z,18.90
2022-12-12T03:15:57.577Z,19.95
2022-12-12T03:18:24.733Z,20.40
2022-12-12T03:20:57.189Z,18.25
2022-12-12T03:23:26.593Z,21.33
2022-12-12T03:25:59.929Z,21.98
2022-12-12T03:28:32.291Z,19.17
2022-12-12T03:31:02.901Z,20.30
2022-12-12T03:33:33.703Z,19.20
2022-12-12T03:36:05.921Z,20.13
2022-12-12T03:38:35.057Z,22.08
2022-12-12T03:41:04.824Z,20.90
2022-12-12T03:43:34.492Z,21.00
2022-12-12T03:46:06.904Z,19.53
2022-12-12T03:48:44.305Z,23.30
2022-12-12T03:51:13.711Z,21.65
2022-12-12T03:53:45.481Z,22.15
2022-12-12T03:56:12.532Z,20.40
2022-12-12T03:58:43.020Z,21.48
2022-12-12T04:01:11.663Z,21.05
2022-12-12T04:03:45.313Z,22.30
2022-12-12T04:06:33.664Z,21.60
2022-12-12T04:09:22.446Z,23.10
2022-12-12T04:12:12.634Z,22.80
2022-12-12T04:14:59.645Z,25.00
2022-12-12T04:17:33.508Z,20.10
2022-12-12T04:20:24.745Z,21.83
2022-12-12T04:23:15.913Z,22.90
2022-12-12T04:26:06.141Z,24.90
2022-12-12T04:28:33.679Z,24.43
2022-12-12T04:31:04.286Z,21.83
2022-12-12T04:33:36.468Z,23.33
2022-12-12T04:36:04.731Z,22.83
2022-12-12T04:38:32.120Z,24.58
2022-12-12T04:41:00.192Z,24.30
2022-12-12T04:43:31.494Z,21.40
2022-12-12T04:46:00.929Z,23.30
2022-12-12T04:48:37.047Z,21.35
2022-12-12T04:51:06.592Z,21.77
2022-12-12T04:53:36.231Z,23.50
2022-12-12T04:56:05.961Z,21.27
2022-12-12T04:58:32.945Z,24.15
2022-12-12T05:01:08.104Z,23.70
2022-12-12T05:03:41.287Z,23.05
2022-12-12T05:06:13.457Z,21.98
2022-12-12T05:08:43.013Z,23.52
2022-12-12T05:11:10.547Z,20.92
2022-12-12T05:13:39.024Z,22.13
2022-12-12T05:16:24.514Z,24.92
2022-12-12T05:18:51.772Z,22.42
2022-12-12T05:21:18.860Z,21.85
2022-12-12T05:23:45.946Z,21.88
2022-12-12T05:26:23.212Z,21.20
2022-12-12T05:28:50.863Z,22.90
2022-12-12T05:31:17.951Z,23.38
2022-12-12T05:33:45.076Z,23.85
2022-12-12T05:36:12.550Z,20.20
2022-12-12T05:38:39.780Z,24.42
2022-12-12T05:41:07.031Z,21.90
2022-12-12T05:43:34.220Z,20.08
2022-12-12T05:46:01.428Z,22.60
2022-12-12T05:48:28.715Z,17.98
2022-12-12T05:50:55.837Z,20.42
2022-12-12T05:53:23.149Z,19.48
2022-12-12T05:55:52.048Z,19.30
2022-12-12T05:58:19.540Z,16.70
2022-12-12T06:00:48.867Z,17.98
2022-12-12T06:03:16.536Z,18.08
2022-12-12T06:05:43.634Z,19.40
2022-12-12T06:08:10.837Z,17.27
2022-12-12T06:10:38.044Z,16.13
2022-12-12T06:13:05.072Z,17.35
2022-12-12T06:15:32.159Z,16.80
2022-12-12T06:17:59.332Z,15.85
2022-12-12T06:20:26.476Z,15.52
2022-12-12T06:22:54.090Z,14.88
2022-12-12T06:25:21.212Z,16.80
2022-12-12T06:27:48.313Z,16.50
2022-12-12T06:30:15.419Z,18.52
2022-12-12T06:32:42.656Z,20.85
2022-12-12T06:35:10.184Z,17.98
2022-12-12T06:37:37.827Z,17.75
2022-12-12T06:40:05.751Z,16.15
2022-12-12T06:42:32.859Z,17.17
2022-12-12T06:44:59.999Z,21.00
2022-12-12T06:47:27.065Z,22.17
2022-12-12T06:49:53.720Z,19.90
2022-12-12T06:52:20.764Z,20.88
2022-12-12T06:54:47.954Z,19.08
2022-12-12T06:57:14.979Z,19.73
2022-12-12T06:59:42.050Z,20.52
2022-12-12T07:02:10.439Z,21.42
2022-12-12T07:04:37.543Z,22.45
2022-12-12T07:07:04.582Z,22.75
2022-12-12T07:09:31.376Z,23.17
2022-12-12T07:11:58.462Z,21.88
2022-12-12T07:14:25.510Z,24.73
2022-12-12T07:16:52.623Z,30.90
2022-12-12T07:19:19.695Z,33.17
2022-12-12T07:21:46.806Z,29.20
2022-12-12T07:24:15.603Z,27.55
2022-12-12T07:26:42.698Z,25.85
2022-12-12T07:29:09.757Z,26.10
2022-12-12T07:31:36.864Z,22.27
2022-12-12T07:34:03.947Z,23.52
2022-12-12T07:36:30.910Z,21.67
2022-12-12T07:38:57.432Z,24.67
2022-12-12T07:41:24.487Z,24.88
2022-12-12T07:43:52.381Z,32.00
2022-12-12T07:46:21.203Z,32.22
2022-12-12T07:48:48.569Z,29.40
2022-12-12T07:51:16.113Z,30.10
2022-12-12T07:53:43.313Z,29.30
2022-12-12T07:56:11.586Z,29.45
2022-12-12T07:58:38.974Z,24.13
2022-12-12T08:01:14.381Z,22.88
2022-12-12T08:03:42.273Z,22.40
2022-12-12T08:06:09.542Z,19.58
2022-12-12T08:08:36.705Z,24.23
2022-12-12T08:11:07.643Z,21.23
2022-12-12T08:13:36.078Z,25.33
2022-12-12T08:16:04.457Z,21.35
2022-12-12T08:18:31.950Z,20.17
2022-12-12T08:20:59.054Z,21.17
2022-12-12T08:23:26.247Z,20.75
2022-12-12T08:25:53.260Z,20.55
2022-12-12T08:28:20.337Z,18.70
2022-12-12T08:30:50.982Z,22.98
2022-12-12T08:33:18.322Z,23.52
2022-12-12T08:35:45.490Z,23.55
2022-12-12T08:38:12.607Z,25.33
2022-12-12T08:40:39.798Z,24.45
2022-12-12T08:43:06.856Z,24.27
2022-12-12T08:45:33.993Z,21.73
2022-12-12T08:48:01.066Z,24.85
2022-12-12T08:50:28.117Z,24.60
2022-12-12T08:52:55.282Z,24.90
2022-12-12T08:55:22.351Z,25.92
2022-12-12T08:57:49.410Z,31.00
2022-12-12T09:00:16.776Z,27.38
2022-12-12T09:02:44.264Z,30.92
2022-12-12T09:05:11.640Z,27.10
2022-12-12T09:07:38.901Z,29.00
2022-12-12T09:10:06.380Z,27.95
2022-12-12T09:12:36.955Z,28.33
2022-12-12T09:15:09.057Z,26.60
2022-12-12T09:17:36.248Z,24.92
2022-12-12T09:20:03.516Z,24.65
2022-12-12T09:22:30.595Z,26.42
2022-12-12T09:24:57.669Z,24.98
2022-12-12T09:27:25.449Z,27.27
2022-12-12T09:29:52.548Z,25.65
2022-12-12T09:32:24.410Z,25.88
2022-12-12T09:34:51.986Z,28.15
2022-12-12T09:37:19.217Z,26.23
2022-12-12T09:39:46.341Z,27.00
2022-12-12T09:42:20.955Z,27.98
2022-12-12T09:44:48.509Z,25.92
2022-12-12T09:47:18.990Z,24.42
2022-12-12T09:49:46.214Z,24.75
2022-12-12T09:52:16.433Z,26.23
2022-12-12T09:54:43.873Z,22.35
2022-12-12T09:57:30.849Z,21.23
2022-12-12T10:00:03.977Z,20.58
2022-12-12T10:02:38.520Z,18.60
2022-12-12T10:05:14.277Z,18.35
2022-12-12T10:07:47.418Z,22.08
2022-12-12T10:10:34.457Z,19.25
2022-12-12T10:13:02.950Z,18.77
2022-12-12T10:15:39.440Z,16.38
2022-12-12T10:18:10.607Z,18.25
2022-12-12T10:20:44.084Z,20.45
2022-12-12T10:23:31.388Z,17.90
2022-12-12T10:26:01.780Z,17.95
2022-12-12T10:28:31.028Z,24.33
2022-12-12T10:30:59.092Z,20.75
2022-12-12T10:33:33.031Z,20.92
2022-12-12T10:36:06.373Z,16.48
2022-12-12T10:38:53.846Z,18.08
2022-12-12T10:41:34.033Z,17.83
2022-12-12T10:44:05.977Z,15.60
2022-12-12T10:46:41.214Z,15.05
2022-12-12T10:49:17.122Z,14.67
2022-12-12T10:51:44.784Z,15.60
2022-12-12T10:54:15.292Z,14.77
2022-12-12T10:57:02.203Z,13.63
2022-12-12T10:59:29.429Z,14.97
2022-12-12T11:02:10.227Z,14.47
2022-12-12T11:04:37.903Z,13.97
2022-12-12T11:07:04.907Z,11.82
2022-12-12T11:09:31.988Z,12.73
2022-12-12T11:12:01.212Z,17.08
2022-12-12T11:14:36.900Z,16.05
2022-12-12T11:17:18.824Z,18.17
2022-12-12T11:19:46.244Z,17.40
2022-12-12T11:22:13.754Z,19.42
2022-12-12T11:24:44.208Z,18.60
2022-12-12T11:27:19.062Z,17.30
2022-12-12T11:29:46.164Z,17.65
2022-12-12T11:32:15.188Z,14.98
2022-12-12T11:34:46.268Z,15.05
2022-12-12T11:37:17.877Z,17.02
2022-12-12T11:39:46.445Z,14.25
2022-12-12T11:42:13.456Z,14.63
2022-12-12T11:44:41.053Z,17.40
2022-12-12T11:47:20.320Z,16.08
2022-12-12T11:49:48.022Z,16.27
2022-12-12T11:52:19.188Z,15.83
2022-12-12T11:54:46.542Z,15.27
2022-12-12T11:57:17.408Z,14.07
2022-12-12T11:59:54.822Z,13.73
2022-12-12T12:02:41.810Z,13.93
2022-12-12T12:05:08.885Z,14.52
2022-12-12T12:07:50.603Z,14.73
2022-12-12T12:10:22.623Z,13.93
2022-12-12T12:13:11.324Z,12.90
2022-12-12T12:15:53.552Z,13.23
2022-12-12T12:18:28.509Z,11.98
2022-12-12T12:20:58.869Z,13.27
2022-12-12T12:23:27.029Z,13.05
2022-12-12T12:25:57.349Z,14.02
2022-12-12T12:28:35.688Z,14.80
2022-12-12T12:31:22.671Z,12.27
2022-12-12T12:33:57.205Z,11.80
2022-12-12T12:36:38.554Z,11.95
2022-12-12T12:39:15.956Z,12.05
2022-12-12T12:41:53.505Z,11.50
2022-12-12T12:44:34.809Z,11.60
2022-12-12T12:47:17.612Z,11.88
2022-12-12T12:49:47.539Z,12.13
2022-12-12T12:52:27.741Z,10.98
2022-12-12T12:54:56.827Z,11.98
2022-12-12T12:57:34.753Z,13.75
2022-12-12T13:00:05.526Z,12.73
2022-12-12T13:02:35.861Z,12.50
2022-12-12T13:05:16.707Z,12.65
2022-12-12T13:07:48.167Z,13.57
2022-12-12T13:10:21.865Z,11.48
2022-12-12T13:12:53.024Z,11.98
2022-12-12T13:15:26.352Z,13.23
2022-12-12T13:18:02.173Z,14.30
2022-12-12T13:20:30.683Z,11.45
2022-12-12T13:22:57.736Z,12.30
2022-12-12T13:25:32.300Z,13.48
2022-12-12T13:28:01.344Z,10.87
2022-12-12T13:30:38.871Z,10.20
2022-12-12T13:33:07.111Z,11.82
2022-12-12T13:35:36.365Z,12.55
2022-12-12T13:38:03.771Z,11.65
2022-12-12T13:40:32.315Z,12.87
2022-12-12T13:43:09.141Z,12.52
2022-12-12T13:45:37.965Z,13.38
2022-12-12T13:48:06.379Z,14.20
2022-12-12T13:50:33.523Z,12.32
2022-12-12T13:53:08.263Z,13.48
2022-12-12T13:55:36.002Z,12.65
2022-12-12T13:58:05.496Z,12.80
2022-12-12T14:00:33.638Z,12.55
2022-12-12T14:03:02.015Z,11.63
2022-12-12T14:05:32.079Z,12.35
2022-12-12T14:07:59.157Z,12.90
2022-12-12T14:10:32.223Z,12.63
2022-12-12T14:13:15.945Z,13.93
2022-12-12T14:15:44.229Z,12.82
2022-12-12T14:18:19.232Z,13.65
2022-12-12T14:20:52.387Z,11.88
2022-12-12T14:23:25.719Z,11.82
2022-12-12T14:25:53.298Z,12.85
2022-12-12T14:28:21.654Z,11.40
2022-12-12T14:30:51.247Z,11.52
2022-12-12T14:33:18.326Z,13.07
2022-12-12T14:35:51.954Z,11.40
2022-12-12T14:38:22.259Z,12.70
2022-12-12T14:40:56.428Z,13.75
2022-12-12T14:43:26.745Z,13.43
2022-12-12T14:45:56.262Z,13.45
2022-12-12T14:48:23.603Z,13.60
2022-12-12T14:50:54.360Z,13.25
2022-12-12T14:53:23.087Z,14.77
2022-12-12T14:55:59.527Z,15.70
2022-12-12T14:58:28.495Z,19.35
2022-12-12T15:00:57.542Z,20.02
2022-12-12T15:03:26.720Z,26.42
2022-12-12T15:06:13.746Z,28.92
2022-12-12T15:08:41.932Z,27.55
2022-12-12T15:11:13.883Z,21.90
2022-12-12T15:13:49.995Z,18.75
2022-12-12T15:16:17.563Z,17.40
2022-12-12T15:18:44.986Z,16.92
2022-12-12T15:21:12.247Z,17.65
2022-12-12T15:23:41.083Z,15.18
2022-12-12T15:26:15.120Z,15.98
2022-12-12T15:28:43.371Z,16.85
2022-12-12T15:31:14.028Z,16.13
2022-12-12T15:33:41.225Z,17.83
2022-12-12T15:36:17.421Z,20.25
2022-12-12T15:38:44.526Z,23.40
2022-12-12T15:41:13.793Z,22.42
2022-12-12T15:43:43.042Z,21.37
2022-12-12T15:46:14.489Z,20.52
2022-12-12T15:48:42.690Z,20.15
2022-12-12T15:51:10.786Z,20.20
2022-12-12T15:53:40.542Z,20.38
2022-12-12T15:56:07.644Z,24.52
2022-12-12T15:58:35.763Z,25.55
2022-12-12T16:01:06.559Z,24.55
2022-12-12T16:03:34.271Z,21.52
2022-12-12T16:06:04.338Z,20.40
2022-12-12T16:08:33.370Z,21.00
2022-12-12T16:11:01.576Z,17.95
2022-12-12T16:13:36.124Z,27.08
2022-12-12T16:16:08.645Z,34.22
2022-12-12T16:18:37.820Z,25.00
2022-12-12T16:21:04.924Z,23.88
2022-12-12T16:23:33.076Z,19.42
2022-12-12T16:26:00.328Z,20.15
2022-12-12T16:28:29.220Z,17.83
2022-12-12T16:30:59.120Z,34.07
2022-12-12T16:33:30.754Z,56.78
2022-12-12T16:35:59.367Z,30.65
2022-12-12T16:38:27.243Z,27.77
2022-12-12T16:40:55.047Z,27.03
2022-12-12T16:43:23.035Z,23.67
2022-12-12T16:45:50.903Z,18.83
2022-12-12T16:48:18.262Z,18.48
2022-12-12T16:50:45.916Z,19.50
2022-12-12T16:53:13.108Z,20.95
2022-12-12T16:55:41.704Z,21.10
2022-12-12T16:58:08.908Z,23.23
2022-12-12T17:00:36.048Z,24.02
2022-12-12T17:03:03.198Z,29.87
2022-12-12T17:05:30.478Z,44.28
2022-12-12T17:07:57.623Z,39.78
2022-12-12T17:10:25.870Z,33.75
2022-12-12T17:12:53.774Z,26.58
2022-12-12T17:15:23.265Z,25.63
2022-12-12T17:17:50.452Z,24.90
2022-12-12T17:20:17.751Z,25.50
2022-12-12T17:22:45.461Z,26.85
2022-12-12T17:25:12.710Z,29.30
2022-12-12T17:27:40.966Z,26.33
2022-12-12T17:30:09.482Z,24.67
2022-12-12T17:32:36.611Z,23.48
2022-12-12T17:35:04.391Z,25.58
2022-12-12T17:37:31.603Z,67.25
2022-12-12T17:39:58.838Z,71.43
2022-12-12T17:42:25.938Z,204.75
2022-12-12T17:44:52.777Z,105.50
2022-12-12T17:47:19.838Z,113.07
2022-12-12T17:49:47.997Z,78.65
2022-12-12T17:52:15.606Z,58.65
2022-12-12T17:54:42.718Z,36.15
2022-12-12T17:57:30.701Z,28.80
2022-12-12T17:59:58.190Z,31.92
2022-12-12T18:02:25.782Z,31.77
2022-12-12T18:04:52.932Z,32.53
2022-12-12T18:07:20.042Z,36.95
2022-12-12T18:09:47.128Z,40.50
2022-12-12T18:12:14.178Z,32.33
2022-12-12T18:14:41.293Z,34.38
2022-12-12T18:17:08.488Z,33.67
2022-12-12T18:19:35.696Z,41.05
2022-12-12T18:22:02.801Z,36.40
2022-12-12T18:24:30.292Z,33.42
2022-12-12T18:26:58.595Z,39.55
2022-12-12T18:29:26.132Z,50.47
2022-12-12T18:31:53.734Z,44.05
2022-12-12T18:34:20.897Z,44.10
2022-12-12T18:36:49.263Z,38.88
2022-12-12T18:39:16.837Z,39.55
2022-12-12T18:41:43.953Z,39.33
2022-12-12T18:44:12.432Z,38.35
2022-12-12T18:46:43.086Z,34.72
2022-12-12T18:49:12.944Z,38.17
2022-12-12T18:51:40.133Z,33.92
2022-12-12T18:54:14.300Z,35.72
2022-12-12T18:56:42.098Z,42.10
2022-12-12T18:59:09.356Z,37.28
2022-12-12T19:01:36.807Z,37.47
2022-12-12T19:04:11.276Z,33.95
2022-12-12T19:06:41.761Z,32.03
2022-12-12T19:09:11.730Z,35.25
2022-12-12T19:11:38.852Z,35.72
2022-12-12T19:14:06.743Z,61.72
2022-12-12T19:16:33.956Z,48.72
2022-12-12T19:19:01.808Z,45.10
2022-12-12T19:21:29.005Z,39.90
2022-12-12T19:23:56.493Z,35.15
2022-12-12T19:26:27.777Z,33.92
2022-12-12T19:29:04.472Z,38.50
2022-12-12T19:31:35.918Z,33.53
2022-12-12T19:34:04.084Z,29.77
2022-12-12T19:36:31.221Z,33.00
2022-12-12T19:38:59.043Z,34.88
2022-12-12T19:41:26.560Z,35.70
2022-12-12T19:43:54.072Z,38.57
2022-12-12T19:46:22.960Z,37.63
2022-12-12T19:48:53.705Z,36.25
2022-12-12T19:51:21.468Z,36.00
2022-12-12T19:53:49.843Z,37.42
2022-12-12T19:56:24.317Z,39.22
2022-12-12T19:58:51.588Z,32.97
2022-12-12T20:01:20.414Z,29.35
2022-12-12T20:03:51.576Z,33.85
2022-12-12T20:06:18.787Z,38.58
2022-12-12T20:08:46.181Z,39.05
2022-12-12T20:11:14.508Z,33.28
2022-12-12T20:13:41.804Z,32.27
2022-12-12T20:16:10.541Z,38.17
2022-12-12T20:18:38.041Z,33.53
2022-12-12T20:21:05.297Z,37.75
2022-12-12T20:23:33.179Z,35.50
2022-12-12T20:26:03.264Z,34.38
2022-12-12T20:28:30.339Z,33.00
2022-12-12T20:31:05.842Z,33.17
2022-12-12T20:33:33.264Z,38.50
2022-12-12T20:36:02.520Z,39.00
2022-12-12T20:38:30.293Z,38.07
2022-12-12T20:40:57.437Z,39.10
2022-12-12T20:43:24.531Z,37.13
2022-12-12T20:45:51.710Z,30.70
2022-12-12T20:48:18.783Z,30.00
2022-12-12T20:50:45.881Z,28.27
2022-12-12T20:53:13.260Z,32.93
2022-12-12T20:55:40.356Z,35.00
2022-12-12T20:58:07.507Z,30.70
2022-12-12T21:00:36.492Z,39.75
2022-12-12T21:03:03.630Z,42.17
2022-12-12T21:05:30.831Z,41.08
2022-12-12T21:07:58.001Z,45.33
2022-12-12T21:10:25.128Z,52.47
2022-12-12T21:12:52.226Z,41.63
2022-12-12T21:15:19.707Z,44.08
2022-12-12T21:17:46.963Z,36.13
2022-12-12T21:20:13.992Z,35.75
2022-12-12T21:22:41.164Z,30.27
2022-12-12T21:25:08.323Z,31.00
2022-12-12T21:27:35.376Z,30.67
2022-12-12T21:30:02.446Z,29.67
2022-12-12T21:32:29.583Z,45.00
2022-12-12T21:34:56.728Z,51.33
2022-12-12T21:37:23.891Z,43.30
2022-12-12T21:39:53.121Z,44.50
2022-12-12T21:42:20.171Z,43.53
2022-12-12T21:44:47.230Z,45.50
2022-12-12T21:47:14.365Z,36.72
2022-12-12T21:49:41.404Z,31.67
2022-12-12T21:52:10.021Z,30.45
2022-12-12T21:54:37.132Z,31.77
2022-12-12T21:57:04.267Z,35.70
2022-12-12T21:59:31.404Z,30.25
2022-12-12T22:01:59.407Z,28.23
2022-12-12T22:04:26.863Z,27.67
2022-12-12T22:06:54.126Z,28.92
2022-12-12T22:09:21.239Z,28.98
2022-12-12T22:11:50.564Z,29.92
2022-12-12T22:14:20.966Z,37.42
2022-12-12T22:16:48.085Z,33.83
2022-12-12T22:19:15.985Z,35.17
2022-12-12T22:21:45.146Z,36.25
2022-12-12T22:24:12.227Z,36.63
2022-12-12T22:26:40.247Z,34.67
2022-12-12T22:29:09.079Z,30.43
2022-12-12T22:31:38.339Z,31.48
2022-12-12T22:34:07.380Z,30.35
2022-12-12T22:36:35.672Z,35.50
2022-12-12T22:39:02.754Z,64.75
2022-12-12T22:41:30.434Z,69.00
2022-12-12T22:43:59.540Z,43.90
2022-12-12T22:46:26.979Z,37.87
2022-12-12T22:48:55.155Z,39.20
2022-12-12T22:51:23.932Z,36.13
2022-12-12T22:53:51.262Z,36.00
2022-12-12T22:56:18.296Z,34.38
2022-12-12T22:58:45.273Z,33.25
2022-12-12T23:01:14.119Z,35.28
2022-12-12T23:03:41.459Z,34.05
2022-12-12T23:06:13.331Z,29.48
2022-12-12T23:08:40.892Z,27.95
2022-12-12T23:11:09.324Z,28.92
2022-12-12T23:13:36.565Z,26.90
2022-12-12T23:16:05.828Z,27.80
2022-12-12T23:18:33.058Z,29.20
2022-12-12T23:21:00.136Z,29.02
2022-12-12T23:23:27.230Z,27.77
2022-12-12T23:25:54.269Z,29.33
2022-12-12T23:28:21.353Z,30.05
2022-12-12T23:30:48.466Z,29.17
2022-12-12T23:33:15.577Z,28.15
2022-12-12T23:35:46.810Z,28.83
2022-12-12T23:38:14.184Z,33.30
2022-12-12T23:40:41.688Z,30.92
2022-12-12T23:43:08.726Z,27.67
2022-12-12T23:45:36.327Z,26.85
2022-12-12T23:48:03.751Z,30.85
2022-12-12T23:50:30.849Z,28.00
2022-12-12T23:52:58.162Z,29.02
2022-12-12T23:55:25.196Z,29.20
2022-12-12T23:57:52.332Z,26.85
